Time;durP1;ratioP1;P1;durP2;ratioP2;P2;SDS_P1;SDS_P2;PMS_P1;PMS_P2;Temp;Humidity;BMP_temperature;BMP_pressure;BME280_temperature;BME280_humidity;BME280_pressure;Samples;Min_cycle;Max_cycle;Signal;HPM_P1;HPM_P2
2023/02/03 00:02:11;;;;;;;;;;;;;;;7.33;100.00;67578.44;5022764;28;19929;-81
2023/02/03 00:04:36;;;;;;;;;;;;;;;7.33;100.00;67583.16;5018704;28;19921;-82
2023/02/03 00:07:01;;;;;;;;;;;;;;;;;;5000295;28;19947;-81
2023/02/03 00:09:26;;;;;;;;;;;;;;;;;;5025648;28;20000;-83
2023/02/03 00:11:52;;;;;;;;;;;;;;;;;;5013465;28;20398;-82
2023/02/03 00:14:17;;;;;;;;;;;;;;;7.36;100.00;67586.56;5021673;28;19925;-83
2023/02/03 00:16:42;;;;;;;;;;;;;;;7.36;100.00;67587.13;5017185;28;19967;-82
2023/02/03 00:19:07;;;;;;;;;;;;;;;7.35;100.00;67586.00;5020421;28;19921;-82
2023/02/03 00:21:33;;;;;;;;;;;;;;;7.36;100.00;67583.91;5018571;28;20316;-83
2023/02/03 00:23:58;;;;;;;;;;;;;;;7.37;100.00;67593.56;5020684;28;20082;-81
2023/02/03 00:26:24;;;;;;;;;;;;;;;7.36;100.00;67587.13;5013147;28;20548;-81
2023/02/03 00:28:50;;;;;;;;;;;;;;;7.37;100.00;67587.72;5015375;28;19921;-83
2023/02/03 00:31:17;;;;;;;;;;;;;;;7.37;100.00;67588.28;5017352;28;19927;-83
2023/02/03 00:33:42;;;;;;;;;;;;;;;7.39;100.00;67589.97;5020973;28;19956;-82
2023/02/03 00:36:07;;;;;;;;;;;;;;;7.38;100.00;67589.41;5015008;28;19925;-82
2023/02/03 00:38:33;;;;;;;;;;;;;;;7.40;100.00;67591.66;5012440;28;19921;-81
2023/02/03 00:40:58;;;;;;;;;;;;;;;7.40;100.00;67591.66;5019308;28;20981;-82
2023/02/03 00:43:23;;;;;;;;;;;;;;;7.41;100.00;67589.59;5014473;28;20011;-80
2023/02/03 00:45:48;;;;;;;;;;;;;;;7.41;100.00;67592.78;5016905;28;19921;-82
2023/02/03 00:48:14;;;;;;;;;;;;;;;;;;5017899;28;19936;-82
2023/02/03 00:50:39;;;;;;;;;;;;;;;7.40;100.00;67591.66;5016491;28;19925;-81
2023/02/03 00:53:04;;;;;;;;;;;;;;;;;;5020455;28;20333;-82
2023/02/03 00:55:29;;;;;;;;;;;;;;;7.40;100.00;67591.09;5012349;28;19926;-82
2023/02/03 00:57:55;;;;;;;;;;;;;;;7.38;100.00;67589.41;5021260;28;20291;-82
2023/02/03 01:00:20;;;;;;;;;;;;;;;7.40;100.00;67591.66;5019792;28;20305;-82
2023/02/03 01:02:45;;;;;;;;;;;;;;;7.40;100.00;67591.66;4996933;28;19945;-81
2023/02/03 01:05:11;;;;;;;;;;;;;;;7.40;100.00;67596.97;5011606;28;20482;-83
2023/02/03 01:07:36;;;;;;;;;;;;;;;;;;4999695;28;20019;-82
2023/02/03 01:10:01;;;;;;;;;;;;;;;7.39;100.00;67589.97;5019163;28;19925;-82
2023/02/03 01:12:26;;;;;;;;;;;;;;;;;;5007208;28;19921;-83
2023/02/03 01:14:51;;;;;;;;;;;;;;;;;;5021279;28;20015;-83
2023/02/03 01:17:17;;;;;;;;;;;;;;;7.39;100.00;67590.53;5022661;28;19980;-82
2023/02/03 01:19:42;;;;;;;;;;;;;;;7.41;100.00;67592.78;5016310;28;19975;-81
2023/02/03 01:22:07;;;;;;;;;;;;;;;7.40;100.00;67591.09;5016180;28;19961;-83
2023/02/03 01:24:32;;;;;;;;;;;;;;;7.40;100.00;67591.09;5012181;28;19928;-82
2023/02/03 01:26:57;;;;;;;;;;;;;;;7.41;100.00;67600.72;5022327;28;19929;-82
2023/02/03 01:29:23;;;;;;;;;;;;;;;7.42;100.00;67593.34;5016503;28;19922;-82
2023/02/03 01:31:48;;;;;;;;;;;;;;;7.43;100.00;67594.50;5015962;28;20484;-82
2023/02/03 01:34:15;;;;;;;;;;;;;;;7.43;100.00;67595.06;5018575;28;20453;-83
2023/02/03 01:36:40;;;;;;;;;;;;;;;7.43;100.00;67595.06;5018667;28;19921;-82
2023/02/03 01:39:05;;;;;;;;;;;;;;;7.43;100.00;67595.06;5008528;28;19944;-82
2023/02/03 01:41:33;;;;;;;;;;;;;;;7.45;100.00;67602.03;5014045;28;19925;-82
2023/02/03 01:43:59;;;;;;;;;;;;;;;7.45;100.00;67592.03;5017717;28;19921;-82
2023/02/03 01:46:34;;;;;;;;;;;;;;;7.46;100.00;67598.44;5017286;28;19972;-83
2023/02/03 01:48:59;;;;;;;;;;;;;;;;;;5017143;28;20298;-82
2023/02/03 01:51:24;;;;;;;;;;;;;;;7.50;100.00;67599.19;5021736;28;19921;-82
2023/02/03 01:53:51;;;;;;;;;;;;;;;7.49;100.00;67598.63;5013830;28;19992;-82
2023/02/03 01:56:16;;;;;;;;;;;;;;;7.49;100.00;67595.44;5036725;28;20372;-83
2023/02/03 01:58:42;;;;;;;;;;;;;;;7.46;100.00;67603.75;5021172;28;19925;-81
2023/02/03 02:01:07;;;;;;;;;;;;;;;7.49;100.00;67598.06;5021059;28;19922;-82
2023/02/03 02:03:41;;;;;;;;;;;;;;;7.46;100.00;67598.44;5020689;28;20049;-83
2023/02/03 02:06:07;;;;;;;;;;;;;;;7.46;100.00;67598.44;5013541;28;20008;-82
2023/02/03 02:08:33;;;;;;;;;;;;;;;7.47;100.00;67599.00;5004683;28;19921;-82
2023/02/03 02:10:58;;;;;;;;;;;;;;;;;;5018698;28;19999;-82
2023/02/03 02:13:24;;;;;;;;;;;;;;;7.46;100.00;67595.25;5021979;28;20012;-82
2023/02/03 02:15:50;;;;;;;;;;;;;;;;;;4997977;28;20348;-82
2023/02/03 02:18:21;;;;;;;;;;;;;;;7.47;100.00;67599.00;5017329;28;19921;-81
2023/02/03 02:20:49;;;;;;;;;;;;;;;7.47;100.00;67599.56;5024973;28;19921;-83
2023/02/03 02:23:20;;;;;;;;;;;;;;;7.49;100.00;67600.72;5023903;28;19971;-83
2023/02/03 02:26:24;;;;;;;;;;;;;;;7.49;100.00;67600.72;5015340;28;19968;-82
2023/02/03 02:29:12;;;;;;;;;;;;;;;7.49;100.00;67600.72;4958793;28;20647;-83
2023/02/03 02:31:51;;;;;;;;;;;;;;;7.49;100.00;67600.72;4925002;28;19922;-80
2023/02/03 02:34:45;;;;;;;;;;;;;;;7.48;100.00;67597.50;4990304;28;19937;-82
2023/02/03 02:37:34;;;;;;;;;;;;;;;7.49;100.00;67601.28;5053027;28;19925;-81
2023/02/03 02:40:28;;;;;;;;;;;;;;;7.49;100.00;67606.03;5021064;28;23150;-82
2023/02/03 02:42:53;;;;;;;;;;;;;;;7.49;100.00;67600.72;5023775;28;20070;-81
2023/02/03 02:45:39;;;;;;;;;;;;;;;7.50;100.00;67601.84;5022659;28;20383;-82
2023/02/03 02:48:09;;;;;;;;;;;;;;;7.50;100.00;67607.16;5003180;28;19921;-82
2023/02/03 02:50:37;;;;;;;;;;;;;;;7.50;100.00;67601.84;5021429;28;19921;-82
2023/02/03 02:53:03;;;;;;;;;;;;;;;7.52;100.00;67604.13;5026719;28;19921;-81
2023/02/03 02:55:31;;;;;;;;;;;;;;;7.52;100.00;67602.03;5031394;28;20677;-81
2023/02/03 02:57:59;;;;;;;;;;;;;;;7.52;100.00;67604.13;5032121;28;19967;-80
2023/02/03 03:00:28;;;;;;;;;;;;;;;7.51;100.00;67608.84;5033197;28;19977;-83
2023/02/03 03:02:53;;;;;;;;;;;;;;;7.51;100.00;67602.97;5035087;28;20437;-81
2023/02/03 03:05:19;;;;;;;;;;;;;;;7.50;100.00;67602.41;5018978;28;19925;-83
2023/02/03 03:07:47;;;;;;;;;;;;;;;7.51;100.00;67608.28;5025158;28;19943;-81
2023/02/03 03:10:15;;;;;;;;;;;;;;;7.51;100.00;67602.97;5016447;28;19921;-81
2023/02/03 03:12:51;;;;;;;;;;;;;;;7.52;100.00;67598.81;5026329;28;19928;-82
2023/02/03 03:15:21;;;;;;;;;;;;;;;7.50;100.00;67601.84;5014579;28;19925;-82
2023/02/03 03:17:46;;;;;;;;;;;;;;;;;;5024714;28;20007;-83
2023/02/03 03:20:12;;;;;;;;;;;;;;;;;;5022400;28;19977;-81
2023/02/03 03:22:40;;;;;;;;;;;;;;;7.49;100.00;67601.28;5021679;28;19937;-81
2023/02/03 03:25:10;;;;;;;;;;;;;;;7.50;100.00;67601.84;5018428;28;19979;-82
2023/02/03 03:27:39;;;;;;;;;;;;;;;7.51;100.00;67602.97;5020321;28;19982;-83
2023/02/03 03:30:04;;;;;;;;;;;;;;;;;;5023441;28;19943;-81
2023/02/03 03:32:31;;;;;;;;;;;;;;;7.52;100.00;67601.47;5022808;28;19925;-83
2023/02/03 03:34:56;;;;;;;;;;;;;;;;;;5016759;28;19929;-82
2023/02/03 03:37:24;;;;;;;;;;;;;;;7.53;100.00;67605.25;5022126;28;19948;-83
2023/02/03 03:39:49;;;;;;;;;;;;;;;;;;5022411;28;19921;-83
2023/02/03 03:42:15;;;;;;;;;;;;;;;;;;5017113;28;19928;-82
2023/02/03 03:45:09;;;;;;;;;;;;;;;7.54;100.00;67606.94;5021047;28;19921;-82
2023/02/03 03:48:04;;;;;;;;;;;;;;;7.55;100.00;67605.44;4966103;28;19922;-81
2023/02/03 03:50:38;;;;;;;;;;;;;;;7.55;100.00;67608.06;5015664;28;19921;-82
2023/02/03 03:53:06;;;;;;;;;;;;;;;7.56;100.00;67608.63;5016386;28;19932;-81
2023/02/03 03:55:33;;;;;;;;;;;;;;;7.55;100.00;67613.38;5020741;28;19953;-82
2023/02/03 03:58:10;;;;;;;;;;;;;;;7.57;100.00;67607.69;5017315;28;19928;-82
2023/02/03 04:00:37;;;;;;;;;;;;;;;7.58;100.00;67608.25;5004711;28;20434;-81
2023/02/03 04:03:16;;;;;;;;;;;;;;;7.57;100.00;67610.34;5016765;28;19922;-82
2023/02/03 04:05:41;;;;;;;;;;;;;;;7.60;100.00;67613.19;5021426;28;19917;-85
2023/02/03 04:08:07;;;;;;;;;;;;;;;7.59;100.00;67609.38;5015302;28;19928;-82
2023/02/03 04:10:33;;;;;;;;;;;;;;;7.61;100.00;67614.31;5027340;28;19966;-85
2023/02/03 04:12:59;;;;;;;;;;;;;;;7.62;100.00;67615.41;5022474;28;19925;-82
2023/02/03 04:15:25;;;;;;;;;;;;;;;7.62;100.00;67612.78;5019789;28;19926;-85
2023/02/03 04:17:50;;;;;;;;;;;;;;;7.62;100.00;67621.31;5022454;28;19927;-82
2023/02/03 04:20:15;;;;;;;;;;;;;;;7.62;100.00;67615.41;5019670;28;19924;-82
2023/02/03 04:22:41;;;;;;;;;;;;;;;7.64;100.00;67617.69;5025604;28;19996;-84
2023/02/03 04:25:06;;;;;;;;;;;;;;;7.61;100.00;67614.31;5020271;28;19917;-84
2023/02/03 04:27:32;;;;;;;;;;;;;;;7.61;100.00;67619.59;5021136;28;19930;-83
2023/02/03 04:29:57;;;;;;;;;;;;;;;;;;5014866;28;20792;-85
2023/02/03 04:32:22;;;;;;;;;;;;;;;;;;5023834;28;20012;-82
2023/02/03 04:34:47;;;;;;;;;;;;;;;7.60;100.00;67619.03;5021054;28;19965;-84
2023/02/03 04:37:12;;;;;;;;;;;;;;;7.58;100.00;67611.47;5022553;28;19944;-83
2023/02/03 04:39:37;;;;;;;;;;;;;;;;;;5023985;28;20306;-85
2023/02/03 04:42:03;;;;;;;;;;;;;;;;;;5019669;28;20374;-82
2023/02/03 04:44:28;;;;;;;;;;;;;;;;;;5020332;28;19922;-82
2023/02/03 04:46:53;;;;;;;;;;;;;;;;;;5020576;28;19925;-83
2023/02/03 04:49:18;;;;;;;;;;;;;;;;;;5019804;28;19921;-83
2023/02/03 04:51:43;;;;;;;;;;;;;;;7.67;100.00;67621.09;5026240;28;19936;-83
2023/02/03 04:54:09;;;;;;;;;;;;;;;7.67;100.00;67621.09;5026299;28;19933;-82
2023/02/03 04:56:35;;;;;;;;;;;;;;;7.69;100.00;67620.72;5032595;28;20375;-83
2023/02/03 04:59:00;;;;;;;;;;;;;;;7.69;100.00;67623.91;5019705;28;19925;-86
2023/02/03 05:01:25;;;;;;;;;;;;;;;7.71;100.00;67625.63;5017520;28;19924;-84
2023/02/03 05:03:51;;;;;;;;;;;;;;;7.73;100.00;67624.66;5022808;28;19921;-82
2023/02/03 05:06:16;;;;;;;;;;;;;;;;;;5021318;28;19921;-83
2023/02/03 05:08:41;;;;;;;;;;;;;;;;;;5025758;28;19918;-82
2023/02/03 05:11:06;;;;;;;;;;;;;;;;;;5025720;28;19982;-82
2023/02/03 05:13:31;;;;;;;;;;;;;;;7.78;100.00;67630.34;5022455;28;19918;-82
2023/02/03 05:15:56;;;;;;;;;;;;;;;7.79;100.00;67634.09;5016556;28;19928;-82
2023/02/03 05:18:22;;;;;;;;;;;;;;;7.77;100.00;67632.41;5016434;28;19961;-83
2023/02/03 05:20:47;;;;;;;;;;;;;;;7.79;100.00;67639.41;5014941;28;20302;-83
2023/02/03 05:23:12;;;;;;;;;;;;;;;;;;5020372;28;19924;-82
2023/02/03 05:25:37;;;;;;;;;;;;;;;;;;5020929;28;20398;-83
2023/02/03 05:28:03;;;;;;;;;;;;;;;7.84;100.00;67635.03;5021519;28;20008;-83
2023/02/03 05:30:28;;;;;;;;;;;;;;;7.84;100.00;67637.69;5021378;28;19928;-83
2023/02/03 05:32:53;;;;;;;;;;;;;;;7.84;100.00;67640.34;5023947;28;20577;-83
2023/02/03 05:35:18;;;;;;;;;;;;;;;;;;5000407;28;19960;-85
2023/02/03 05:37:44;;;;;;;;;;;;;;;;;;5017788;28;19932;-84
2023/02/03 05:42:53;;;;;;;;;;;;;;;7.89;100.00;67645.44;5024595;28;20413;-83
2023/02/03 05:45:19;;;;;;;;;;;;;;;7.93;100.00;67654.69;5018071;28;19932;-85
2023/02/03 05:47:44;;;;;;;;;;;;;;;7.93;100.00;67649.41;5020651;28;19932;-84
2023/02/03 05:50:09;;;;;;;;;;;;;;;7.94;100.00;67651.09;5014797;28;19925;-84
2023/02/03 05:52:34;;;;;;;;;;;;;;;7.93;100.00;67649.41;5000442;28;19928;-84
2023/02/03 05:55:00;;;;;;;;;;;;;;;7.95;100.00;67646.38;5014184;28;19928;-86
2023/02/03 05:57:25;;;;;;;;;;;;;;;7.98;100.00;67655.06;5017124;28;19928;-85
2023/02/03 05:59:50;;;;;;;;;;;;;;;8.00;100.00;67657.31;4998958;28;20418;-83
2023/02/03 06:02:15;;;;;;;;;;;;;;;8.00;100.00;67657.31;5024368;28;20283;-84
2023/02/03 06:04:41;;;;;;;;;;;;;;;8.01;100.00;67659.00;5023691;28;20436;-84
2023/02/03 06:07:06;;;;;;;;;;;;;;;;;;5021888;28;19921;-83
2023/02/03 06:09:31;;;;;;;;;;;;;;;8.02;100.00;67659.56;5021008;28;19921;-85
2023/02/03 06:11:57;;;;;;;;;;;;;;;8.03;100.00;67660.72;5015768;28;20369;-83
2023/02/03 06:14:22;;;;;;;;;;;;;;;;;;5017415;28;19937;-85
2023/02/03 06:16:47;;;;;;;;;;;;;;;;;;5020331;28;20344;-83
2023/02/03 06:19:12;;;;;;;;;;;;;;;8.03;100.00;67660.72;5018151;28;19991;-83
2023/02/03 06:21:37;;;;;;;;;;;;;;;8.03;100.00;67658.63;5019538;28;19925;-83
2023/02/03 06:24:02;;;;;;;;;;;;;;;;;;5023881;28;20024;-83
2023/02/03 06:26:28;;;;;;;;;;;;;;;;;;5016337;28;19928;-84
2023/02/03 06:28:53;;;;;;;;;;;;;;;8.00;100.00;67652.00;5021377;28;19935;-83
2023/02/03 06:31:18;;;;;;;;;;;;;;;8.01;100.00;67658.44;5037202;28;19917;-85
2023/02/03 06:33:43;;;;;;;;;;;;;;;8.01;100.00;67658.44;5026867;28;19917;-83
2023/02/03 06:36:09;;;;;;;;;;;;;;;8.00;100.00;67657.31;5022958;28;19932;-83
2023/02/03 06:38:34;;;;;;;;;;;;;;;7.99;100.00;67654.09;5021629;28;19922;-83
2023/02/03 06:40:59;;;;;;;;;;;;;;;;;;5023615;28;20309;-83
2023/02/03 06:43:24;;;;;;;;;;;;;;;8.00;100.00;67654.66;5041757;28;19917;-86
2023/02/03 06:45:50;;;;;;;;;;;;;;;8.01;100.00;67658.44;5029267;28;19917;-82
2023/02/03 06:48:15;;;;;;;;;;;;;;;;;;5032047;28;19917;-84
2023/02/03 06:50:40;;;;;;;;;;;;;;;8.01;100.00;67658.44;5030625;28;19967;-83
2023/02/03 06:53:06;;;;;;;;;;;;;;;8.03;100.00;67661.28;5037643;28;19925;-83
2023/02/03 06:55:31;;;;;;;;;;;;;;;8.04;100.00;67659.75;5013025;28;20827;-85
2023/02/03 06:57:56;;;;;;;;;;;;;;;8.02;100.00;67654.28;5023928;28;20007;-83
2023/02/03 07:00:21;;;;;;;;;;;;;;;;;;5020183;28;19921;-85
2023/02/03 07:02:52;;;;;;;;;;;;;;;8.00;100.00;67657.31;5028971;28;20337;-83
2023/02/03 07:05:17;;;;;;;;;;;;;;;;;;5019965;28;19917;-83
2023/02/03 07:07:42;;;;;;;;;;;;;;;8.01;100.00;67659.00;5030900;28;20043;-82
2023/02/03 07:10:08;;;;;;;;;;;;;;;8.03;100.00;67655.44;5031814;28;19917;-85
2023/02/03 07:12:35;;;;;;;;;;;;;;;;;;5031155;28;20602;-84
2023/02/03 07:15:00;;;;;;;;;;;;;;;8.04;100.00;67661.84;5029528;28;20559;-86
2023/02/03 07:17:25;;;;;;;;;;;;;;;8.04;100.00;67662.41;5016563;28;19924;-83
2023/02/03 07:19:50;;;;;;;;;;;;;;;;;;5026348;28;20344;-83
2023/02/03 07:22:16;;;;;;;;;;;;;;;8.01;100.00;67658.44;5024446;28;19948;-83
2023/02/03 07:24:41;;;;;;;;;;;;;;;8.00;100.00;67655.25;5019916;28;19921;-83
2023/02/03 07:27:06;;;;;;;;;;;;;;;8.00;100.00;67657.31;5020781;28;19970;-85
2023/02/03 07:29:31;;;;;;;;;;;;;;;8.00;100.00;67657.31;5028197;28;20733;-83
2023/02/03 07:31:56;;;;;;;;;;;;;;;;;;5030450;28;19917;-85
2023/02/03 07:34:22;;;;;;;;;;;;;;;8.00;100.00;67657.31;5024628;28;19925;-86
2023/02/03 07:36:47;;;;;;;;;;;;;;;8.00;100.00;67654.66;5015009;28;19921;-84
2023/02/03 07:39:12;;;;;;;;;;;;;;;;;;5027829;28;19940;-86
2023/02/03 07:41:37;;;;;;;;;;;;;;;8.00;100.00;67663.19;5018793;28;19925;-83
2023/02/03 07:44:02;;;;;;;;;;;;;;;;;;5027500;28;20000;-84
2023/02/03 07:46:28;;;;;;;;;;;;;;;;;;5025893;28;19996;-83
2023/02/03 07:48:53;;;;;;;;;;;;;;;7.99;100.00;67656.75;5030655;28;19921;-83
2023/02/03 07:51:18;;;;;;;;;;;;;;;;;;5012400;28;20390;-83
2023/02/03 07:53:44;;;;;;;;;;;;;;;7.97;100.00;67651.25;5031081;28;19920;-83
2023/02/03 07:56:10;;;;;;;;;;;;;;;;;;5028966;28;20390;-85
2023/02/03 07:58:36;;;;;;;;;;;;;;;7.96;100.00;67652.78;5020064;28;19917;-85
2023/02/03 08:01:08;;;;;;;;;;;;;;;7.97;100.00;67653.91;5023093;28;19928;-83
2023/02/03 08:03:33;;;;;;;;;;;;;;;;;;5014015;28;19922;-86
2023/02/03 08:05:58;;;;;;;;;;;;;;;;;;5021734;28;19986;-83
2023/02/03 08:08:24;;;;;;;;;;;;;;;7.95;100.00;67651.66;5031155;28;19917;-84
2023/02/03 08:10:49;;;;;;;;;;;;;;;7.97;100.00;67653.91;5030253;28;19924;-84
2023/02/03 08:13:14;;;;;;;;;;;;;;;7.96;100.00;67652.78;5030200;28;19921;-84
2023/02/03 08:15:39;;;;;;;;;;;;;;;;;;5019035;28;20390;-84
2023/02/03 08:18:05;;;;;;;;;;;;;;;;;;5029906;28;19918;-84
2023/02/03 08:20:30;;;;;;;;;;;;;;;;;;5026066;28;20016;-84
2023/02/03 08:22:55;;;;;;;;;;;;;;;7.95;100.00;67649.00;5021623;28;19918;-84
2023/02/03 08:25:20;;;;;;;;;;;;;;;7.96;100.00;67652.78;5016882;28;20019;-84
2023/02/03 08:27:45;;;;;;;;;;;;;;;;;;5031258;28;19917;-84
2023/02/03 08:30:12;;;;;;;;;;;;;;;7.95;100.00;67652.22;5029417;28;19948;-83
2023/02/03 08:32:37;;;;;;;;;;;;;;;7.96;100.00;67652.78;5030079;28;19924;-85
2023/02/03 08:35:03;;;;;;;;;;;;;;;7.94;100.00;67648.44;5028943;28;19921;-85
2023/02/03 08:37:31;;;;;;;;;;;;;;;7.94;100.00;67650.53;5012501;28;20008;-86
2023/02/03 08:39:57;;;;;;;;;;;;;;;7.94;100.00;67651.09;5003680;28;19975;-84
2023/02/03 08:42:22;;;;;;;;;;;;;;;7.94;100.00;67651.09;5025038;28;19921;-84
2023/02/03 08:44:48;;;;;;;;;;;;;;;7.93;100.00;67649.41;5026243;28;20306;-82
2023/02/03 08:47:15;;;;;;;;;;;;;;;7.93;100.00;67649.41;5028179;28;20290;-84
2023/02/03 08:49:40;;;;;;;;;;;;;;;7.94;100.00;67650.53;5040727;28;20440;-84
2023/02/03 08:52:06;;;;;;;;;;;;;;;7.94;100.00;67647.88;5027280;28;19924;-82
2023/02/03 08:54:32;;;;;;;;;;;;;;;;;;5029661;28;19933;-83
2023/02/03 08:56:57;;;;;;;;;;;;;;;7.94;100.00;67655.81;5017835;28;19921;-83
2023/02/03 08:59:22;;;;;;;;;;;;;;;;;;5014085;28;19982;-83
2023/02/03 09:01:47;;;;;;;;;;;;;;;;;;5029735;28;19925;-83
2023/02/03 09:04:12;;;;;;;;;;;;;;;;;;5029818;28;19921;-84
2023/02/03 09:06:38;;;;;;;;;;;;;;;7.97;100.00;67651.84;5004383;28;19921;-85
2023/02/03 09:09:04;;;;;;;;;;;;;;;8.00;100.00;67657.31;5019934;28;19925;-85
2023/02/03 09:11:29;;;;;;;;;;;;;;;8.01;100.00;67655.81;5018073;28;19921;-86
2023/02/03 09:13:56;;;;;;;;;;;;;;;8.02;100.00;67656.94;5014863;28;20031;-84
2023/02/03 09:16:22;;;;;;;;;;;;;;;8.03;100.00;67660.72;5023069;28;19921;-86
2023/02/03 09:18:47;;;;;;;;;;;;;;;8.04;100.00;67661.84;5025430;28;19927;-87
2023/02/03 09:21:13;;;;;;;;;;;;;;;;;;5024583;28;19921;-84
2023/02/03 09:23:39;;;;;;;;;;;;;;;8.05;100.00;67660.31;5017753;28;19943;-86
2023/02/03 09:26:05;;;;;;;;;;;;;;;8.07;100.00;67662.59;5020897;28;20396;-86
2023/02/03 09:28:30;;;;;;;;;;;;;;;;;;5001020;28;20357;-84
2023/02/03 09:31:05;;;;;;;;;;;;;;;8.10;100.00;67668.63;5013925;28;19921;-84
2023/02/03 09:33:31;;;;;;;;;;;;;;;8.11;100.00;67670.34;5020103;28;19921;-84
2023/02/03 09:35:56;;;;;;;;;;;;;;;8.14;100.00;67673.16;5015292;28;19932;-84
2023/02/03 09:38:21;;;;;;;;;;;;;;;8.18;100.00;67674.50;5014449;28;20577;-84
2023/02/03 09:40:52;;;;;;;;;;;;;;;8.21;100.00;67685.84;5017231;28;19921;-86
2023/02/03 09:43:40;;;;;;;;;;;;;;;8.24;100.00;67684.50;5015979;28;20020;-83
2023/02/03 09:46:07;;;;;;;;;;;;;;;8.29;100.00;67687.50;5015377;28;19921;-84
2023/02/03 09:48:36;;;;;;;;;;;;;;;8.35;100.00;67696.41;5017412;28;19929;-84
2023/02/03 09:51:02;;;;;;;;;;;;;;;8.39;100.00;67700.94;5016409;28;19968;-84
2023/02/03 09:53:32;;;;;;;;;;;;;;;8.45;100.00;67704.50;5019333;28;19987;-86
2023/02/03 09:55:58;;;;;;;;;;;;;;;8.48;100.00;67716.44;5022333;28;19925;-86
2023/02/03 09:58:23;;;;;;;;;;;;;;;8.49;100.00;67712.28;5016325;28;19933;-87
2023/02/03 10:00:54;;;;;;;;;;;;;;;8.54;100.00;67717.34;5024083;28;20126;-84
2023/02/03 10:03:46;;;;;;;;;;;;;;;8.56;100.00;67719.63;5018746;28;19925;-84
2023/02/03 10:06:30;;;;;;;;;;;;;;;8.58;100.00;67722.47;5018641;28;19929;-83
2023/02/03 10:09:04;;;;;;;;;;;;;;;8.61;100.00;67725.28;5020008;28;19928;-84
2023/02/03 10:11:29;;;;;;;;;;;;;;;;;;5022017;28;19936;-84
2023/02/03 10:13:57;;;;;;;;;;;;;;;8.67;100.00;67726.78;5020785;28;19929;-84
2023/02/03 10:16:22;;;;;;;;;;;;;;;;;;5020686;28;19928;-85
2023/02/03 10:18:49;;;;;;;;;;;;;;;8.72;100.00;67737.75;5021676;28;19922;-82
2023/02/03 10:21:24;;;;;;;;;;;;;;;8.74;100.00;67734.72;5005018;28;19975;-85
2023/02/03 10:23:53;;;;;;;;;;;;;;;8.75;100.00;67737.94;5025199;28;19921;-84
2023/02/03 10:26:21;;;;;;;;;;;;;;;8.76;100.00;67742.28;5022846;28;19936;-84
2023/02/03 10:28:46;;;;;;;;;;;;;;;;;;5031264;28;20317;-84
2023/02/03 10:31:11;;;;;;;;;;;;;;;;;;5024339;28;20844;-84
2023/02/03 10:33:37;;;;;;;;;;;;;;;;;;5024178;28;20074;-84
2023/02/03 10:36:09;;;;;;;;;;;;;;;8.80;100.00;67746.84;5017575;28;20267;-84
2023/02/03 10:38:54;;;;;;;;;;;;;;;8.81;100.00;67747.97;5025803;28;20003;-84
2023/02/03 10:41:21;;;;;;;;;;;;;;;8.81;100.00;67745.31;5016669;28;19928;-84
2023/02/03 10:43:50;;;;;;;;;;;;;;;8.82;100.00;67749.09;5024337;28;19947;-84
2023/02/03 10:46:15;;;;;;;;;;;;;;;;;;5022458;28;20718;-84
2023/02/03 10:48:40;;;;;;;;;;;;;;;8.87;100.00;67754.19;5029143;28;20818;-84
2023/02/03 10:51:26;;;;;;;;;;;;;;;8.89;100.00;67755.88;5032909;28;19999;-84
2023/02/03 10:53:52;;;;;;;;;;;;;;;8.92;100.00;67759.28;5029609;28;20341;-84
2023/02/03 10:56:22;;;;;;;;;;;;;;;8.94;100.00;67761.53;5030310;28;20437;-83
2023/02/03 10:58:58;;;;;;;;;;;;;;;8.96;100.00;67763.81;5030978;28;19992;-84
2023/02/03 11:01:23;;;;;;;;;;;;;;;;;;5027915;28;19953;-83
2023/02/03 11:03:59;;;;;;;;;;;;;;;8.93;100.00;67757.78;5046144;28;19984;-85
2023/02/03 11:06:25;;;;;;;;;;;;;;;8.90;100.00;67757.59;5026893;28;19917;-83
2023/02/03 11:08:51;;;;;;;;;;;;;;;8.86;100.00;67749.81;5029750;28;19917;-84
2023/02/03 11:11:23;;;;;;;;;;;;;;;8.81;100.00;67753.25;5027713;28;20405;-84
2023/02/03 11:13:52;;;;;;;;;;;;;;;8.79;100.00;67745.13;5029087;28;20377;-85
2023/02/03 11:16:23;;;;;;;;;;;;;;;8.76;100.00;67742.28;5022528;28;20456;-83
2023/02/03 11:18:56;;;;;;;;;;;;;;;8.73;100.00;67738.88;5030500;28;19921;-84
2023/02/03 11:21:27;;;;;;;;;;;;;;;8.70;100.00;67735.50;5027415;28;19917;-85
2023/02/03 11:23:54;;;;;;;;;;;;;;;8.63;100.00;67722.25;5030589;28;19921;-84
2023/02/03 11:26:27;;;;;;;;;;;;;;;8.58;100.00;67722.47;5026715;28;20357;-84
2023/02/03 11:28:55;;;;;;;;;;;;;;;8.53;100.00;67713.56;5026996;28;19996;-84
2023/02/03 11:31:36;;;;;;;;;;;;;;;8.49;100.00;67711.72;5030477;28;19917;-84
2023/02/03 11:34:01;;;;;;;;;;;;;;;;;;5029637;28;19921;-84
2023/02/03 11:36:28;;;;;;;;;;;;;;;8.41;100.00;67702.66;5029547;28;19948;-84
2023/02/03 11:39:07;;;;;;;;;;;;;;;8.35;100.00;67696.97;5027372;28;20537;-84
2023/02/03 11:41:36;;;;;;;;;;;;;;;8.28;100.00;67689.00;5019717;28;19921;-84
2023/02/03 11:44:01;;;;;;;;;;;;;;;;;;5023139;28;19917;-84
2023/02/03 11:46:26;;;;;;;;;;;;;;;8.24;100.00;67683.94;5029075;28;19924;-84
2023/02/03 11:48:51;;;;;;;;;;;;;;;;;;5030238;28;19984;-84
2023/02/03 11:51:16;;;;;;;;;;;;;;;;;;5034951;28;19921;-84
2023/02/03 11:54:00;;;;;;;;;;;;;;;8.25;100.00;67685.63;5031399;28;19923;-85
2023/02/03 11:56:54;;;;;;;;;;;;;;;8.27;100.00;67693.19;5004184;28;19924;-84
2023/02/03 11:59:38;;;;;;;;;;;;;;;8.29;100.00;67690.16;5009781;28;19924;-84
2023/02/03 12:02:32;;;;;;;;;;;;;;;8.34;100.00;67695.84;5023267;28;19918;-84
2023/02/03 12:05:12;;;;;;;;;;;;;;;8.35;100.00;67691.66;5029158;28;19921;-83
2023/02/03 12:07:37;;;;;;;;;;;;;;;8.36;100.00;67698.09;5011944;28;19963;-85
2023/02/03 12:10:02;;;;;;;;;;;;;;;;;;5028940;28;19944;-85
2023/02/03 12:12:46;;;;;;;;;;;;;;;8.39;100.00;67697.72;5029244;28;19988;-85
2023/02/03 12:15:26;;;;;;;;;;;;;;;8.35;100.00;67693.75;5028159;28;19921;-84
2023/02/03 12:17:51;;;;;;;;;;;;;;;;;;5029012;28;19917;-85
2023/02/03 12:20:32;;;;;;;;;;;;;;;8.25;100.00;67685.06;5028623;28;19982;-84
2023/02/03 12:23:00;;;;;;;;;;;;;;;8.23;100.00;67680.13;5020768;28;20426;-85
2023/02/03 12:25:26;;;;;;;;;;;;;;;8.17;100.00;67676.59;5016837;28;19924;-84
2023/02/03 12:27:51;;;;;;;;;;;;;;;;;;5019298;28;19917;-85
2023/02/03 12:30:21;;;;;;;;;;;;;;;8.12;100.00;67671.47;5028541;28;20310;-84
2023/02/03 12:32:50;;;;;;;;;;;;;;;8.14;100.00;67673.16;5044053;28;19917;-84
2023/02/03 12:35:28;;;;;;;;;;;;;;;8.17;100.00;67676.00;5004877;28;19964;-85
2023/02/03 12:37:53;;;;;;;;;;;;;;;8.18;100.00;67675.06;5006547;28;20398;-85
2023/02/03 12:40:33;;;;;;;;;;;;;;;8.21;100.00;67681.09;5022514;28;20021;-83
2023/02/03 12:43:07;;;;;;;;;;;;;;;8.23;100.00;67683.38;5014526;28;19918;-84
2023/02/03 12:45:32;;;;;;;;;;;;;;;;;;5024148;28;19921;-83
2023/02/03 12:48:04;;;;;;;;;;;;;;;8.29;100.00;67689.59;5017056;28;19928;-84
2023/02/03 12:50:41;;;;;;;;;;;;;;;8.29;100.00;67690.16;5028438;28;20401;-84
2023/02/03 12:53:12;;;;;;;;;;;;;;;8.30;100.00;67696.03;5027764;28;20325;-84
2023/02/03 12:55:40;;;;;;;;;;;;;;;8.29;100.00;67689.59;5022408;28;20317;-84
2023/02/03 12:58:09;;;;;;;;;;;;;;;8.32;100.00;67690.91;5017213;28;19923;-84
2023/02/03 13:00:40;;;;;;;;;;;;;;;8.30;100.00;67691.28;5021567;28;20011;-84
2023/02/03 13:03:26;;;;;;;;;;;;;;;8.29;100.00;67690.16;5020639;28;19929;-84
2023/02/03 13:05:56;;;;;;;;;;;;;;;8.31;100.00;67697.72;5020386;28;20538;-85
2023/02/03 13:08:21;;;;;;;;;;;;;;;8.33;100.00;67694.69;5019470;28;19976;-84
2023/02/03 13:10:50;;;;;;;;;;;;;;;8.32;100.00;67693.56;5018861;28;19925;-84
2023/02/03 13:13:19;;;;;;;;;;;;;;;8.31;100.00;67689.19;5014288;28;19961;-85
2023/02/03 13:15:44;;;;;;;;;;;;;;;;;;5027680;28;20360;-85
2023/02/03 13:18:27;;;;;;;;;;;;;;;8.32;100.00;67690.34;5027722;28;20376;-83
2023/02/03 13:20:55;;;;;;;;;;;;;;;8.31;100.00;67689.19;5027729;28;19917;-83
2023/02/03 13:23:20;;;;;;;;;;;;;;;8.29;100.00;67687.50;5027535;28;19952;-83
2023/02/03 13:25:52;;;;;;;;;;;;;;;8.29;100.00;67694.91;5027493;28;19964;-85
2023/02/03 13:28:38;;;;;;;;;;;;;;;8.28;100.00;67689.00;5028387;28;19964;-85
2023/02/03 13:31:23;;;;;;;;;;;;;;;8.28;100.00;67689.00;5021900;28;20710;-85
2023/02/03 13:33:55;;;;;;;;;;;;;;;8.28;100.00;67688.47;5026368;28;19921;-84
2023/02/03 13:36:32;;;;;;;;;;;;;;;8.26;100.00;67692.06;5021150;28;19929;-83
2023/02/03 13:39:07;;;;;;;;;;;;;;;8.26;100.00;67686.22;5016814;28;19917;-84
2023/02/03 13:41:32;;;;;;;;;;;;;;;;;;5026531;28;20201;-84